sensor_id;sensor_type;location;lat;lon;timestamp;P1;durP1;ratioP1;P2;durP2;ratioP2
66546;SDS011;53400;50.364;14.874;2023-03-01T00:01:12;35.08;;;18.05;;
66546;SDS011;53400;50.364;14.874;2023-03-01T00:03:40;34.13;;;17.75;;
66546;SDS011;53400;50.364;14.874;2023-03-01T00:06:06;35.78;;;18.35;;
66546;SDS011;53400;50.364;14.874;2023-03-01T00:08:32;37.60;;;18.60;;
66546;SDS011;53400;50.364;14.874;2023-03-01T00:11:03;34.35;;;17.25;;
66546;SDS011;53400;50.364;14.874;2023-03-01T00:13:30;32.58;;;16.60;;
66546;SDS011;53400;50.364;14.874;2023-03-01T00:15:58;38.53;;;17.63;;
66546;SDS011;53400;50.364;14.874;2023-03-01T00:18:24;33.85;;;17.05;;
66546;SDS011;53400;50.364;14.874;2023-03-01T00:20:50;36.03;;;16.70;;
66546;SDS011;53400;50.364;14.874;2023-03-01T00:23:17;35.55;;;17.20;;
66546;SDS011;53400;50.364;14.874;2023-03-01T00:25:43;38.50;;;17.02;;
66546;SDS011;53400;50.364;14.874;2023-03-01T00:28:09;36.03;;;17.08;;
66546;SDS011;53400;50.364;14.874;2023-03-01T00:30:35;34.97;;;16.88;;
66546;SDS011;53400;50.364;14.874;2023-03-01T00:33:02;38.13;;;18.55;;
66546;SDS011;53400;50.364;14.874;2023-03-01T00:35:28;37.38;;;19.35;;
66546;SDS011;53400;50.364;14.874;2023-03-01T00:37:54;38.30;;;19.50;;
66546;SDS011;53400;50.364;14.874;2023-03-01T00:40:23;39.42;;;18.65;;
66546;SDS011;53400;50.364;14.874;2023-03-01T00:42:49;34.40;;;16.85;;
66546;SDS011;53400;50.364;14.874;2023-03-01T00:45:15;37.10;;;18.98;;
66546;SDS011;53400;50.364;14.874;2023-03-01T00:47:41;33.72;;;16.73;;
66546;SDS011;53400;50.364;14.874;2023-03-01T00:50:09;31.13;;;16.25;;
66546;SDS011;53400;50.364;14.874;2023-03-01T00:52:37;32.95;;;16.10;;
66546;SDS011;53400;50.364;14.874;2023-03-01T00:55:03;34.60;;;17.02;;
66546;SDS011;53400;50.364;14.874;2023-03-01T00:57:30;31.52;;;16.17;;
66546;SDS011;53400;50.364;14.874;2023-03-01T00:59:56;35.55;;;16.75;;
66546;SDS011;53400;50.364;14.874;2023-03-01T01:02:22;34.92;;;16.90;;
66546;SDS011;53400;50.364;14.874;2023-03-01T01:04:48;34.42;;;16.60;;
66546;SDS011;53400;50.364;14.874;2023-03-01T01:07:15;36.25;;;16.70;;
66546;SDS011;53400;50.364;14.874;2023-03-01T01:09:41;33.58;;;15.65;;
66546;SDS011;53400;50.364;14.874;2023-03-01T01:12:08;29.00;;;14.50;;
66546;SDS011;53400;50.364;14.874;2023-03-01T01:14:34;33.80;;;14.63;;
66546;SDS011;53400;50.364;14.874;2023-03-01T01:17:01;34.35;;;15.27;;
66546;SDS011;53400;50.364;14.874;2023-03-01T01:19:26;32.50;;;15.30;;
66546;SDS011;53400;50.364;14.874;2023-03-01T01:21:52;30.90;;;14.88;;
66546;SDS011;53400;50.364;14.874;2023-03-01T01:24:20;33.95;;;14.68;;
66546;SDS011;53400;50.364;14.874;2023-03-01T01:26:46;33.80;;;15.55;;
66546;SDS011;53400;50.364;14.874;2023-03-01T01:29:12;34.47;;;15.27;;
66546;SDS011;53400;50.364;14.874;2023-03-01T01:31:38;30.70;;;15.27;;
66546;SDS011;53400;50.364;14.874;2023-03-01T01:34:06;29.88;;;14.10;;
66546;SDS011;53400;50.364;14.874;2023-03-01T01:36:34;30.60;;;14.23;;
66546;SDS011;53400;50.364;14.874;2023-03-01T01:39:00;30.77;;;14.07;;
66546;SDS011;53400;50.364;14.874;2023-03-01T01:41:28;30.45;;;15.45;;
66546;SDS011;53400;50.364;14.874;2023-03-01T01:44:15;34.63;;;15.05;;
66546;SDS011;53400;50.364;14.874;2023-03-01T01:46:43;31.80;;;14.80;;
66546;SDS011;53400;50.364;14.874;2023-03-01T01:49:17;31.80;;;14.75;;
66546;SDS011;53400;50.364;14.874;2023-03-01T01:51:49;32.42;;;14.38;;
66546;SDS011;53400;50.364;14.874;2023-03-01T01:54:19;30.60;;;14.13;;
66546;SDS011;53400;50.364;14.874;2023-03-01T01:56:52;34.63;;;14.73;;
66546;SDS011;53400;50.364;14.874;2023-03-01T01:59:21;28.38;;;14.23;;
66546;SDS011;53400;50.364;14.874;2023-03-01T02:01:51;31.30;;;14.85;;
66546;SDS011;53400;50.364;14.874;2023-03-01T02:04:18;35.55;;;14.60;;
66546;SDS011;53400;50.364;14.874;2023-03-01T02:06:45;35.03;;;14.85;;
66546;SDS011;53400;50.364;14.874;2023-03-01T02:09:16;33.03;;;14.57;;
66546;SDS011;53400;50.364;14.874;2023-03-01T02:11:46;30.00;;;13.60;;
66546;SDS011;53400;50.364;14.874;2023-03-01T02:14:15;32.08;;;14.32;;
66546;SDS011;53400;50.364;14.874;2023-03-01T02:16:42;36.38;;;14.98;;
66546;SDS011;53400;50.364;14.874;2023-03-01T02:19:08;30.80;;;14.38;;
66546;SDS011;53400;50.364;14.874;2023-03-01T02:21:42;34.55;;;15.02;;
66546;SDS011;53400;50.364;14.874;2023-03-01T02:24:19;31.73;;;15.82;;
66546;SDS011;53400;50.364;14.874;2023-03-01T02:26:54;33.33;;;15.45;;
66546;SDS011;53400;50.364;14.874;2023-03-01T02:29:22;34.97;;;16.63;;
66546;SDS011;53400;50.364;14.874;2023-03-01T02:31:51;33.83;;;15.18;;
66546;SDS011;53400;50.364;14.874;2023-03-01T02:34:22;28.98;;;14.50;;
66546;SDS011;53400;50.364;14.874;2023-03-01T02:36:51;38.17;;;17.08;;
66546;SDS011;53400;50.364;14.874;2023-03-01T02:39:21;34.40;;;15.35;;
66546;SDS011;53400;50.364;14.874;2023-03-01T02:41:52;33.90;;;14.15;;
66546;SDS011;53400;50.364;14.874;2023-03-01T02:44:19;33.25;;;16.85;;
66546;SDS011;53400;50.364;14.874;2023-03-01T02:46:49;29.92;;;14.23;;
66546;SDS011;53400;50.364;14.874;2023-03-01T02:49:21;34.90;;;14.73;;
66546;SDS011;53400;50.364;14.874;2023-03-01T02:54:50;33.85;;;15.65;;
66546;SDS011;53400;50.364;14.874;2023-03-01T02:57:19;32.92;;;15.13;;
66546;SDS011;53400;50.364;14.874;2023-03-01T02:59:47;34.60;;;17.35;;
66546;SDS011;53400;50.364;14.874;2023-03-01T03:02:20;34.22;;;17.15;;
66546;SDS011;53400;50.364;14.874;2023-03-01T03:05:02;35.90;;;16.10;;
66546;SDS011;53400;50.364;14.874;2023-03-01T03:07:32;34.70;;;16.73;;
66546;SDS011;53400;50.364;14.874;2023-03-01T03:09:59;37.85;;;16.35;;
66546;SDS011;53400;50.364;14.874;2023-03-01T03:12:26;33.83;;;15.40;;
66546;SDS011;53400;50.364;14.874;2023-03-01T03:14:51;31.30;;;15.82;;
66546;SDS011;53400;50.364;14.874;2023-03-01T03:17:18;34.50;;;15.82;;
66546;SDS011;53400;50.364;14.874;2023-03-01T03:19:45;34.70;;;16.80;;
66546;SDS011;53400;50.364;14.874;2023-03-01T03:22:11;32.58;;;16.00;;
66546;SDS011;53400;50.364;14.874;2023-03-01T03:24:36;32.42;;;15.65;;
66546;SDS011;53400;50.364;14.874;2023-03-01T03:27:03;34.15;;;15.20;;
66546;SDS011;53400;50.364;14.874;2023-03-01T03:29:29;32.72;;;14.57;;
66546;SDS011;53400;50.364;14.874;2023-03-01T03:31:55;27.98;;;14.63;;
66546;SDS011;53400;50.364;14.874;2023-03-01T03:34:22;32.25;;;14.23;;
66546;SDS011;53400;50.364;14.874;2023-03-01T03:36:52;39.05;;;15.80;;
66546;SDS011;53400;50.364;14.874;2023-03-01T03:41:47;31.45;;;14.50;;
66546;SDS011;53400;50.364;14.874;2023-03-01T03:44:13;30.88;;;14.85;;
66546;SDS011;53400;50.364;14.874;2023-03-01T03:46:39;31.27;;;14.63;;
66546;SDS011;53400;50.364;14.874;2023-03-01T03:49:05;30.55;;;14.45;;
66546;SDS011;53400;50.364;14.874;2023-03-01T03:51:33;30.40;;;14.10;;
66546;SDS011;53400;50.364;14.874;2023-03-01T03:53:58;29.75;;;13.95;;
66546;SDS011;53400;50.364;14.874;2023-03-01T03:56:26;35.33;;;13.10;;
66546;SDS011;53400;50.364;14.874;2023-03-01T03:58:51;31.60;;;14.25;;
66546;SDS011;53400;50.364;14.874;2023-03-01T04:01:18;30.02;;;14.40;;
66546;SDS011;53400;50.364;14.874;2023-03-01T04:03:44;29.55;;;14.50;;
66546;SDS011;53400;50.364;14.874;2023-03-01T04:06:13;31.05;;;13.75;;
66546;SDS011;53400;50.364;14.874;2023-03-01T04:08:40;32.38;;;13.88;;
66546;SDS011;53400;50.364;14.874;2023-03-01T04:11:06;26.95;;;13.05;;
66546;SDS011;53400;50.364;14.874;2023-03-01T04:13:53;32.30;;;14.10;;
66546;SDS011;53400;50.364;14.874;2023-03-01T04:16:21;29.85;;;13.30;;
66546;SDS011;53400;50.364;14.874;2023-03-01T04:18:47;29.25;;;12.93;;
66546;SDS011;53400;50.364;14.874;2023-03-01T04:21:13;29.75;;;14.18;;
66546;SDS011;53400;50.364;14.874;2023-03-01T04:23:40;35.20;;;15.55;;
66546;SDS011;53400;50.364;14.874;2023-03-01T04:26:07;30.17;;;15.00;;
66546;SDS011;53400;50.364;14.874;2023-03-01T04:28:34;28.65;;;13.73;;
66546;SDS011;53400;50.364;14.874;2023-03-01T04:31:02;33.53;;;14.57;;
66546;SDS011;53400;50.364;14.874;2023-03-01T04:33:38;30.27;;;13.43;;
66546;SDS011;53400;50.364;14.874;2023-03-01T04:36:05;32.03;;;13.38;;
66546;SDS011;53400;50.364;14.874;2023-03-01T04:38:34;30.20;;;14.57;;
66546;SDS011;53400;50.364;14.874;2023-03-01T04:41:02;28.88;;;14.65;;
66546;SDS011;53400;50.364;14.874;2023-03-01T04:43:28;30.90;;;13.73;;
66546;SDS011;53400;50.364;14.874;2023-03-01T04:45:54;30.13;;;14.30;;
66546;SDS011;53400;50.364;14.874;2023-03-01T04:48:24;32.50;;;14.57;;
66546;SDS011;53400;50.364;14.874;2023-03-01T04:50:50;32.90;;;14.07;;
66546;SDS011;53400;50.364;14.874;2023-03-01T04:53:16;32.70;;;14.75;;
66546;SDS011;53400;50.364;14.874;2023-03-01T04:55:44;33.50;;;15.00;;
66546;SDS011;53400;50.364;14.874;2023-03-01T04:58:11;35.63;;;15.35;;
66546;SDS011;53400;50.364;14.874;2023-03-01T05:00:37;35.95;;;15.65;;
66546;SDS011;53400;50.364;14.874;2023-03-01T05:03:03;33.28;;;14.50;;
66546;SDS011;53400;50.364;14.874;2023-03-01T05:05:30;30.85;;;15.25;;
66546;SDS011;53400;50.364;14.874;2023-03-01T05:07:57;31.88;;;16.17;;
66546;SDS011;53400;50.364;14.874;2023-03-01T05:10:26;35.00;;;16.05;;
66546;SDS011;53400;50.364;14.874;2023-03-01T05:12:54;32.17;;;14.90;;
66546;SDS011;53400;50.364;14.874;2023-03-01T05:15:24;33.65;;;16.08;;
66546;SDS011;53400;50.364;14.874;2023-03-01T05:17:50;38.40;;;16.80;;
66546;SDS011;53400;50.364;14.874;2023-03-01T05:20:16;31.75;;;13.05;;
66546;SDS011;53400;50.364;14.874;2023-03-01T05:22:42;35.40;;;15.77;;
66546;SDS011;53400;50.364;14.874;2023-03-01T05:25:09;30.98;;;14.60;;
66546;SDS011;53400;50.364;14.874;2023-03-01T05:27:35;34.60;;;15.75;;
66546;SDS011;53400;50.364;14.874;2023-03-01T05:30:01;34.28;;;15.38;;
66546;SDS011;53400;50.364;14.874;2023-03-01T05:32:40;33.08;;;16.00;;
66546;SDS011;53400;50.364;14.874;2023-03-01T05:35:08;38.90;;;17.55;;
66546;SDS011;53400;50.364;14.874;2023-03-01T05:37:34;38.33;;;17.25;;
66546;SDS011;53400;50.364;14.874;2023-03-01T05:40:01;36.38;;;17.40;;
66546;SDS011;53400;50.364;14.874;2023-03-01T05:42:28;37.47;;;18.42;;
66546;SDS011;53400;50.364;14.874;2023-03-01T05:44:54;35.20;;;16.92;;
66546;SDS011;53400;50.364;14.874;2023-03-01T05:47:20;32.67;;;15.95;;
66546;SDS011;53400;50.364;14.874;2023-03-01T05:49:47;38.28;;;17.58;;
66546;SDS011;53400;50.364;14.874;2023-03-01T05:52:15;38.17;;;16.83;;
66546;SDS011;53400;50.364;14.874;2023-03-01T05:54:41;35.00;;;17.67;;
66546;SDS011;53400;50.364;14.874;2023-03-01T05:57:07;36.92;;;18.08;;
66546;SDS011;53400;50.364;14.874;2023-03-01T05:59:33;43.83;;;19.77;;
66546;SDS011;53400;50.364;14.874;2023-03-01T06:01:59;39.25;;;19.10;;
66546;SDS011;53400;50.364;14.874;2023-03-01T06:04:24;40.03;;;18.25;;
66546;SDS011;53400;50.364;14.874;2023-03-01T06:06:52;40.20;;;18.23;;
66546;SDS011;53400;50.364;14.874;2023-03-01T06:09:18;45.60;;;20.17;;
66546;SDS011;53400;50.364;14.874;2023-03-01T06:11:44;41.72;;;20.70;;
66546;SDS011;53400;50.364;14.874;2023-03-01T06:14:10;52.45;;;24.48;;
66546;SDS011;53400;50.364;14.874;2023-03-01T06:16:40;39.47;;;18.90;;
66546;SDS011;53400;50.364;14.874;2023-03-01T06:19:06;50.30;;;23.10;;
66546;SDS011;53400;50.364;14.874;2023-03-01T06:21:31;45.35;;;23.10;;
66546;SDS011;53400;50.364;14.874;2023-03-01T06:23:59;40.47;;;20.40;;
66546;SDS011;53400;50.364;14.874;2023-03-01T06:26:25;42.25;;;22.38;;
66546;SDS011;53400;50.364;14.874;2023-03-01T06:28:51;52.95;;;24.73;;
66546;SDS011;53400;50.364;14.874;2023-03-01T06:31:17;40.90;;;20.60;;
66546;SDS011;53400;50.364;14.874;2023-03-01T06:33:43;47.28;;;20.55;;
66546;SDS011;53400;50.364;14.874;2023-03-01T06:36:09;45.13;;;21.92;;
66546;SDS011;53400;50.364;14.874;2023-03-01T06:38:36;44.67;;;20.88;;
66546;SDS011;53400;50.364;14.874;2023-03-01T06:41:03;43.20;;;20.20;;
66546;SDS011;53400;50.364;14.874;2023-03-01T06:43:29;38.30;;;18.35;;
66546;SDS011;53400;50.364;14.874;2023-03-01T06:45:55;38.85;;;19.23;;
66546;SDS011;53400;50.364;14.874;2023-03-01T06:48:21;41.63;;;18.65;;
66546;SDS011;53400;50.364;14.874;2023-03-01T06:50:47;39.05;;;18.20;;
66546;SDS011;53400;50.364;14.874;2023-03-01T06:53:14;43.88;;;19.17;;
66546;SDS011;53400;50.364;14.874;2023-03-01T06:55:39;35.67;;;18.50;;
66546;SDS011;53400;50.364;14.874;2023-03-01T06:58:08;40.92;;;18.75;;
66546;SDS011;53400;50.364;14.874;2023-03-01T07:00:35;43.40;;;20.13;;
66546;SDS011;53400;50.364;14.874;2023-03-01T07:03:01;44.40;;;21.08;;
66546;SDS011;53400;50.364;14.874;2023-03-01T07:05:30;41.90;;;19.17;;
66546;SDS011;53400;50.364;14.874;2023-03-01T07:07:56;41.38;;;19.52;;
66546;SDS011;53400;50.364;14.874;2023-03-01T07:10:22;44.88;;;19.98;;
66546;SDS011;53400;50.364;14.874;2023-03-01T07:12:48;42.92;;;19.77;;
66546;SDS011;53400;50.364;14.874;2023-03-01T07:15:16;38.28;;;17.65;;
66546;SDS011;53400;50.364;14.874;2023-03-01T07:17:42;39.88;;;18.65;;
66546;SDS011;53400;50.364;14.874;2023-03-01T07:20:10;41.60;;;18.63;;
66546;SDS011;53400;50.364;14.874;2023-03-01T07:22:38;36.88;;;17.33;;
66546;SDS011;53400;50.364;14.874;2023-03-01T07:25:05;38.72;;;19.70;;
66546;SDS011;53400;50.364;14.874;2023-03-01T07:27:32;40.40;;;17.98;;
66546;SDS011;53400;50.364;14.874;2023-03-01T07:29:57;34.15;;;16.65;;
66546;SDS011;53400;50.364;14.874;2023-03-01T07:32:25;37.67;;;17.33;;
66546;SDS011;53400;50.364;14.874;2023-03-01T07:34:51;33.20;;;17.00;;
66546;SDS011;53400;50.364;14.874;2023-03-01T07:37:17;32.97;;;16.10;;
66546;SDS011;53400;50.364;14.874;2023-03-01T07:39:43;38.45;;;17.65;;
66546;SDS011;53400;50.364;14.874;2023-03-01T07:42:09;35.15;;;18.60;;
66546;SDS011;53400;50.364;14.874;2023-03-01T07:44:35;38.25;;;18.48;;
66546;SDS011;53400;50.364;14.874;2023-03-01T07:47:02;32.55;;;17.10;;
66546;SDS011;53400;50.364;14.874;2023-03-01T07:49:29;26.77;;;15.07;;
66546;SDS011;53400;50.364;14.874;2023-03-01T07:51:55;33.95;;;17.42;;
66546;SDS011;53400;50.364;14.874;2023-03-01T07:54:21;33.42;;;16.15;;
66546;SDS011;53400;50.364;14.874;2023-03-01T07:56:47;34.97;;;16.02;;
66546;SDS011;53400;50.364;14.874;2023-03-01T07:59:13;33.00;;;15.95;;
66546;SDS011;53400;50.364;14.874;2023-03-01T08:01:39;31.42;;;15.23;;
66546;SDS011;53400;50.364;14.874;2023-03-01T08:04:05;32.03;;;14.65;;
66546;SDS011;53400;50.364;14.874;2023-03-01T08:06:35;31.45;;;16.75;;
66546;SDS011;53400;50.364;14.874;2023-03-01T08:09:01;35.50;;;17.23;;
66546;SDS011;53400;50.364;14.874;2023-03-01T08:11:27;33.22;;;17.13;;
66546;SDS011;53400;50.364;14.874;2023-03-01T08:13:53;33.80;;;18.48;;
66546;SDS011;53400;50.364;14.874;2023-03-01T08:16:20;32.63;;;18.30;;
66546;SDS011;53400;50.364;14.874;2023-03-01T08:18:46;35.55;;;18.48;;
66546;SDS011;53400;50.364;14.874;2023-03-01T08:21:12;31.15;;;17.40;;
66546;SDS011;53400;50.364;14.874;2023-03-01T08:23:41;31.52;;;16.27;;
66546;SDS011;53400;50.364;14.874;2023-03-01T08:26:11;35.80;;;17.85;;
66546;SDS011;53400;50.364;14.874;2023-03-01T08:28:39;39.83;;;20.30;;
66546;SDS011;53400;50.364;14.874;2023-03-01T08:31:13;38.13;;;18.15;;
66546;SDS011;53400;50.364;14.874;2023-03-01T08:33:40;35.85;;;17.85;;
66546;SDS011;53400;50.364;14.874;2023-03-01T08:36:06;35.42;;;17.50;;
66546;SDS011;53400;50.364;14.874;2023-03-01T08:38:32;31.80;;;16.42;;
66546;SDS011;53400;50.364;14.874;2023-03-01T08:41:00;30.88;;;16.70;;
66546;SDS011;53400;50.364;14.874;2023-03-01T08:43:27;31.92;;;15.23;;
66546;SDS011;53400;50.364;14.874;2023-03-01T08:45:53;31.90;;;16.27;;
66546;SDS011;53400;50.364;14.874;2023-03-01T08:48:19;27.95;;;15.65;;
66546;SDS011;53400;50.364;14.874;2023-03-01T08:50:44;29.27;;;15.23;;
66546;SDS011;53400;50.364;14.874;2023-03-01T08:53:10;34.38;;;16.33;;
66546;SDS011;53400;50.364;14.874;2023-03-01T08:55:36;29.92;;;16.05;;
66546;SDS011;53400;50.364;14.874;2023-03-01T08:58:03;31.42;;;14.38;;
66546;SDS011;53400;50.364;14.874;2023-03-01T09:00:29;28.00;;;13.98;;
66546;SDS011;53400;50.364;14.874;2023-03-01T09:02:55;31.83;;;14.25;;
66546;SDS011;53400;50.364;14.874;2023-03-01T09:05:22;27.60;;;13.60;;
66546;SDS011;53400;50.364;14.874;2023-03-01T09:07:47;26.85;;;13.95;;
66546;SDS011;53400;50.364;14.874;2023-03-01T09:10:13;34.15;;;16.20;;
66546;SDS011;53400;50.364;14.874;2023-03-01T09:12:39;28.98;;;14.80;;
66546;SDS011;53400;50.364;14.874;2023-03-01T09:15:07;27.90;;;14.95;;
66546;SDS011;53400;50.364;14.874;2023-03-01T09:17:34;29.30;;;15.32;;
66546;SDS011;53400;50.364;14.874;2023-03-01T09:20:00;28.33;;;14.50;;
66546;SDS011;53400;50.364;14.874;2023-03-01T09:22:25;28.08;;;12.82;;
66546;SDS011;53400;50.364;14.874;2023-03-01T09:24:52;27.65;;;13.23;;
66546;SDS011;53400;50.364;14.874;2023-03-01T09:27:17;28.48;;;13.98;;
66546;SDS011;53400;50.364;14.874;2023-03-01T09:32:12;26.73;;;13.85;;
66546;SDS011;53400;50.364;14.874;2023-03-01T09:34:38;24.92;;;13.27;;
66546;SDS011;53400;50.364;14.874;2023-03-01T09:37:23;26.73;;;14.82;;
66546;SDS011;53400;50.364;14.874;2023-03-01T09:39:49;29.35;;;14.20;;
66546;SDS011;53400;50.364;14.874;2023-03-01T09:42:15;26.35;;;13.95;;
66546;SDS011;53400;50.364;14.874;2023-03-01T09:44:43;27.15;;;14.38;;
66546;SDS011;53400;50.364;14.874;2023-03-01T09:47:16;26.02;;;14.02;;
66546;SDS011;53400;50.364;14.874;2023-03-01T09:49:44;26.20;;;13.38;;
66546;SDS011;53400;50.364;14.874;2023-03-01T09:52:17;27.15;;;14.80;;
66546;SDS011;53400;50.364;14.874;2023-03-01T09:54:49;26.83;;;13.63;;
66546;SDS011;53400;50.364;14.874;2023-03-01T09:57:20;23.50;;;13.60;;
66546;SDS011;53400;50.364;14.874;2023-03-01T09:59:57;27.88;;;14.45;;
66546;SDS011;53400;50.364;14.874;2023-03-01T10:02:33;28.65;;;14.65;;
66546;SDS011;53400;50.364;14.874;2023-03-01T10:05:05;24.58;;;13.63;;
66546;SDS011;53400;50.364;14.874;2023-03-01T10:07:41;24.38;;;14.30;;
66546;SDS011;53400;50.364;14.874;2023-03-01T10:10:16;26.92;;;13.60;;
66546;SDS011;53400;50.364;14.874;2023-03-01T10:12:51;26.48;;;14.10;;
66546;SDS011;53400;50.364;14.874;2023-03-01T10:15:20;27.08;;;14.48;;
66546;SDS011;53400;50.364;14.874;2023-03-01T10:17:57;24.17;;;13.73;;
66546;SDS011;53400;50.364;14.874;2023-03-01T10:22:59;26.15;;;14.45;;
66546;SDS011;53400;50.364;14.874;2023-03-01T10:25:32;25.95;;;14.48;;
66546;SDS011;53400;50.364;14.874;2023-03-01T10:28:10;24.93;;;13.83;;
66546;SDS011;53400;50.364;14.874;2023-03-01T10:30:42;25.80;;;12.45;;
66546;SDS011;53400;50.364;14.874;2023-03-01T10:33:13;23.42;;;13.15;;
66546;SDS011;53400;50.364;14.874;2023-03-01T10:35:43;22.55;;;11.23;;
66546;SDS011;53400;50.364;14.874;2023-03-01T10:38:10;24.02;;;13.00;;
66546;SDS011;53400;50.364;14.874;2023-03-01T10:40:49;25.50;;;13.05;;
66546;SDS011;53400;50.364;14.874;2023-03-01T10:43:17;26.13;;;13.80;;
66546;SDS011;53400;50.364;14.874;2023-03-01T10:45:43;23.13;;;12.52;;
66546;SDS011;53400;50.364;14.874;2023-03-01T10:48:14;24.35;;;12.88;;
66546;SDS011;53400;50.364;14.874;2023-03-01T10:50:44;27.00;;;14.20;;
66546;SDS011;53400;50.364;14.874;2023-03-01T10:56:00;25.48;;;13.00;;
66546;SDS011;53400;50.364;14.874;2023-03-01T10:58:29;23.98;;;13.50;;
66546;SDS011;53400;50.364;14.874;2023-03-01T11:00:56;24.45;;;13.73;;
66546;SDS011;53400;50.364;14.874;2023-03-01T11:03:26;25.90;;;14.02;;
66546;SDS011;53400;50.364;14.874;2023-03-01T11:05:57;28.33;;;14.48;;
66546;SDS011;53400;50.364;14.874;2023-03-01T11:08:41;25.73;;;12.82;;
66546;SDS011;53400;50.364;14.874;2023-03-01T11:11:17;25.58;;;13.68;;
66546;SDS011;53400;50.364;14.874;2023-03-01T11:13:53;27.08;;;14.60;;
66546;SDS011;53400;50.364;14.874;2023-03-01T11:16:28;27.27;;;15.50;;
66546;SDS011;53400;50.364;14.874;2023-03-01T11:21:53;26.17;;;13.68;;
66546;SDS011;53400;50.364;14.874;2023-03-01T11:24:23;23.85;;;12.88;;
66546;SDS011;53400;50.364;14.874;2023-03-01T11:26:55;25.10;;;13.18;;
66546;SDS011;53400;50.364;14.874;2023-03-01T11:29:26;28.67;;;14.60;;
66546;SDS011;53400;50.364;14.874;2023-03-01T11:31:58;26.20;;;13.48;;
66546;SDS011;53400;50.364;14.874;2023-03-01T11:34:32;28.55;;;14.30;;
66546;SDS011;53400;50.364;14.874;2023-03-01T11:37:09;25.92;;;12.48;;
66546;SDS011;53400;50.364;14.874;2023-03-01T11:39:43;27.33;;;15.05;;
66546;SDS011;53400;50.364;14.874;2023-03-01T11:42:17;24.88;;;13.98;;
66546;SDS011;53400;50.364;14.874;2023-03-01T11:44:46;25.90;;;14.07;;
66546;SDS011;53400;50.364;14.874;2023-03-01T11:47:25;26.13;;;14.15;;
66546;SDS011;53400;50.364;14.874;2023-03-01T11:50:11;27.75;;;14.50;;
66546;SDS011;53400;50.364;14.874;2023-03-01T11:52:48;26.98;;;13.98;;
66546;SDS011;53400;50.364;14.874;2023-03-01T11:55:32;25.88;;;14.27;;
66546;SDS011;53400;50.364;14.874;2023-03-01T11:58:14;27.88;;;14.27;;
66546;SDS011;53400;50.364;14.874;2023-03-01T12:03:28;27.83;;;13.40;;
66546;SDS011;53400;50.364;14.874;2023-03-01T12:06:02;25.80;;;14.35;;
66546;SDS011;53400;50.364;14.874;2023-03-01T12:08:40;26.02;;;14.00;;
66546;SDS011;53400;50.364;14.874;2023-03-01T12:11:11;26.00;;;14.38;;
66546;SDS011;53400;50.364;14.874;2023-03-01T12:13:59;26.73;;;14.05;;
66546;SDS011;53400;50.364;14.874;2023-03-01T12:16:45;25.75;;;13.88;;
66546;SDS011;53400;50.364;14.874;2023-03-01T12:19:37;24.70;;;13.02;;
66546;SDS011;53400;50.364;14.874;2023-03-01T12:22:23;26.75;;;14.35;;
66546;SDS011;53400;50.364;14.874;2023-03-01T12:24:59;26.05;;;14.70;;
66546;SDS011;53400;50.364;14.874;2023-03-01T12:30:47;24.55;;;12.82;;
66546;SDS011;53400;50.364;14.874;2023-03-01T12:33:36;25.95;;;13.82;;
66546;SDS011;53400;50.364;14.874;2023-03-01T12:36:24;29.75;;;15.40;;
66546;SDS011;53400;50.364;14.874;2023-03-01T12:39:02;27.58;;;14.70;;
66546;SDS011;53400;50.364;14.874;2023-03-01T12:41:48;29.33;;;15.57;;
66546;SDS011;53400;50.364;14.874;2023-03-01T12:44:25;27.85;;;14.57;;
66546;SDS011;53400;50.364;14.874;2023-03-01T12:47:02;25.17;;;15.45;;
66546;SDS011;53400;50.364;14.874;2023-03-01T12:49:37;28.13;;;14.55;;
66546;SDS011;53400;50.364;14.874;2023-03-01T12:52:10;28.17;;;14.73;;
66546;SDS011;53400;50.364;14.874;2023-03-01T12:54:43;25.77;;;15.05;;
66546;SDS011;53400;50.364;14.874;2023-03-01T12:57:14;26.45;;;14.63;;
66546;SDS011;53400;50.364;14.874;2023-03-01T12:59:46;26.30;;;14.10;;
66546;SDS011;53400;50.364;14.874;2023-03-01T13:02:25;28.80;;;14.93;;
66546;SDS011;53400;50.364;14.874;2023-03-01T13:05:00;27.15;;;14.48;;
66546;SDS011;53400;50.364;14.874;2023-03-01T13:07:35;26.88;;;14.90;;
66546;SDS011;53400;50.364;14.874;2023-03-01T13:12:52;24.67;;;13.52;;
66546;SDS011;53400;50.364;14.874;2023-03-01T13:15:30;26.80;;;14.20;;
66546;SDS011;53400;50.364;14.874;2023-03-01T13:17:59;25.15;;;13.65;;
66546;SDS011;53400;50.364;14.874;2023-03-01T13:20:29;25.98;;;14.63;;
66546;SDS011;53400;50.364;14.874;2023-03-01T13:23:00;30.65;;;15.13;;
66546;SDS011;53400;50.364;14.874;2023-03-01T13:25:30;27.10;;;13.50;;
66546;SDS011;53400;50.364;14.874;2023-03-01T13:31:08;31.02;;;16.23;;
66546;SDS011;53400;50.364;14.874;2023-03-01T13:33:44;26.77;;;14.05;;
66546;SDS011;53400;50.364;14.874;2023-03-01T13:36:13;25.77;;;13.75;;
66546;SDS011;53400;50.364;14.874;2023-03-01T13:39:30;20.33;;;11.18;;
66546;SDS011;53400;50.364;14.874;2023-03-01T13:42:24;30.83;;;14.68;;
66546;SDS011;53400;50.364;14.874;2023-03-01T13:45:19;27.63;;;13.90;;
66546;SDS011;53400;50.364;14.874;2023-03-01T13:47:49;25.15;;;13.77;;
66546;SDS011;53400;50.364;14.874;2023-03-01T13:50:20;27.30;;;13.68;;
66546;SDS011;53400;50.364;14.874;2023-03-01T13:52:53;34.58;;;17.52;;
66546;SDS011;53400;50.364;14.874;2023-03-01T13:55:26;35.75;;;16.83;;
66546;SDS011;53400;50.364;14.874;2023-03-01T13:57:59;29.73;;;14.75;;
66546;SDS011;53400;50.364;14.874;2023-03-01T14:00:30;30.83;;;15.40;;
66546;SDS011;53400;50.364;14.874;2023-03-01T14:03:02;24.65;;;14.00;;
66546;SDS011;53400;50.364;14.874;2023-03-01T14:05:35;23.80;;;13.32;;
66546;SDS011;53400;50.364;14.874;2023-03-01T14:08:01;23.15;;;12.25;;
66546;SDS011;53400;50.364;14.874;2023-03-01T14:10:30;21.40;;;11.75;;
66546;SDS011;53400;50.364;14.874;2023-03-01T14:13:06;31.25;;;16.23;;
66546;SDS011;53400;50.364;14.874;2023-03-01T14:15:46;27.15;;;13.98;;
66546;SDS011;53400;50.364;14.874;2023-03-01T14:18:22;23.65;;;13.05;;
66546;SDS011;53400;50.364;14.874;2023-03-01T14:20:55;23.13;;;12.52;;
66546;SDS011;53400;50.364;14.874;2023-03-01T14:23:21;21.95;;;11.93;;
66546;SDS011;53400;50.364;14.874;2023-03-01T14:25:49;21.80;;;12.00;;
66546;SDS011;53400;50.364;14.874;2023-03-01T14:28:18;21.90;;;11.50;;
66546;SDS011;53400;50.364;14.874;2023-03-01T14:30:47;19.88;;;10.93;;
66546;SDS011;53400;50.364;14.874;2023-03-01T14:33:21;25.67;;;12.82;;
66546;SDS011;53400;50.364;14.874;2023-03-01T14:35:52;23.15;;;11.93;;
66546;SDS011;53400;50.364;14.874;2023-03-01T14:38:23;23.70;;;12.55;;
66546;SDS011;53400;50.364;14.874;2023-03-01T14:40:56;21.48;;;10.90;;
66546;SDS011;53400;50.364;14.874;2023-03-01T14:43:25;21.35;;;11.02;;
66546;SDS011;53400;50.364;14.874;2023-03-01T14:45:52;23.92;;;12.45;;
66546;SDS011;53400;50.364;14.874;2023-03-01T14:48:18;28.23;;;16.25;;
66546;SDS011;53400;50.364;14.874;2023-03-01T14:50:45;24.90;;;12.43;;